sensor_id;sensor_type;location;lat;lon;timestamp;temperature;humidity
20803;DHT22;10562;-33.856;151.182;2024-02-23T00:01:08;33.80;99.90
20803;DHT22;10562;-33.856;151.182;2024-02-23T00:03:39;33.70;99.90
20803;DHT22;10562;-33.856;151.182;2024-02-23T00:06:11;33.70;99.90
20803;DHT22;10562;-33.856;151.182;2024-02-23T00:08:42;33.70;99.90
20803;DHT22;10562;-33.856;151.182;2024-02-23T00:11:13;33.70;99.90
20803;DHT22;10562;-33.856;151.182;2024-02-23T00:13:44;33.70;99.90
20803;DHT22;10562;-33.856;151.182;2024-02-23T00:16:17;33.80;99.90
20803;DHT22;10562;-33.856;151.182;2024-02-23T00:18:48;33.80;99.90
20803;DHT22;10562;-33.856;151.182;2024-02-23T00:21:19;33.80;99.90
20803;DHT22;10562;-33.856;151.182;2024-02-23T00:23:49;33.90;99.90
20803;DHT22;10562;-33.856;151.182;2024-02-23T00:26:20;34.00;99.90
20803;DHT22;10562;-33.856;151.182;2024-02-23T00:28:51;34.00;99.90
20803;DHT22;10562;-33.856;151.182;2024-02-23T00:31:23;34.00;99.90
20803;DHT22;10562;-33.856;151.182;2024-02-23T00:33:54;34.10;99.90
20803;DHT22;10562;-33.856;151.182;2024-02-23T00:36:25;34.10;99.90
20803;DHT22;10562;-33.856;151.182;2024-02-23T00:38:56;34.30;99.90
20803;DHT22;10562;-33.856;151.182;2024-02-23T00:41:26;34.30;99.90
20803;DHT22;10562;-33.856;151.182;2024-02-23T00:43:57;34.30;99.90
20803;DHT22;10562;-33.856;151.182;2024-02-23T00:46:30;34.10;99.90
20803;DHT22;10562;-33.856;151.182;2024-02-23T00:49:01;34.00;99.90
20803;DHT22;10562;-33.856;151.182;2024-02-23T00:51:32;34.10;99.90
20803;DHT22;10562;-33.856;151.182;2024-02-23T00:54:03;34.20;99.90
20803;DHT22;10562;-33.856;151.182;2024-02-23T00:56:35;34.30;99.90
20803;DHT22;10562;-33.856;151.182;2024-02-23T00:59:06;34.60;99.90
20803;DHT22;10562;-33.856;151.182;2024-02-23T01:01:39;34.90;99.90
20803;DHT22;10562;-33.856;151.182;2024-02-23T01:04:10;35.10;99.90
20803;DHT22;10562;-33.856;151.182;2024-02-23T01:06:40;35.30;99.90
20803;DHT22;10562;-33.856;151.182;2024-02-23T01:09:11;35.60;99.90
20803;DHT22;10562;-33.856;151.182;2024-02-23T01:11:44;36.10;99.90
20803;DHT22;10562;-33.856;151.182;2024-02-23T01:14:15;36.30;99.90
20803;DHT22;10562;-33.856;151.182;2024-02-23T01:16:48;36.30;99.90
20803;DHT22;10562;-33.856;151.182;2024-02-23T01:19:19;36.40;99.90
20803;DHT22;10562;-33.856;151.182;2024-02-23T01:21:50;36.50;99.90
20803;DHT22;10562;-33.856;151.182;2024-02-23T01:24:27;36.60;99.90
20803;DHT22;10562;-33.856;151.182;2024-02-23T01:26:58;36.50;99.90
20803;DHT22;10562;-33.856;151.182;2024-02-23T01:29:28;36.50;99.90
20803;DHT22;10562;-33.856;151.182;2024-02-23T01:32:01;36.50;99.90
20803;DHT22;10562;-33.856;151.182;2024-02-23T01:34:32;36.50;99.90
20803;DHT22;10562;-33.856;151.182;2024-02-23T01:37:03;36.50;99.90
20803;DHT22;10562;-33.856;151.182;2024-02-23T01:39:34;36.70;99.90
20803;DHT22;10562;-33.856;151.182;2024-02-23T01:42:05;36.80;99.90
20803;DHT22;10562;-33.856;151.182;2024-02-23T01:44:36;36.80;99.90
20803;DHT22;10562;-33.856;151.182;2024-02-23T01:47:09;36.90;99.90
20803;DHT22;10562;-33.856;151.182;2024-02-23T01:49:39;36.70;99.90
20803;DHT22;10562;-33.856;151.182;2024-02-23T01:52:11;36.50;99.90
20803;DHT22;10562;-33.856;151.182;2024-02-23T01:54:43;36.40;99.90
20803;DHT22;10562;-33.856;151.182;2024-02-23T01:57:14;36.40;99.90
20803;DHT22;10562;-33.856;151.182;2024-02-23T01:59:45;36.40;99.90
20803;DHT22;10562;-33.856;151.182;2024-02-23T02:02:17;36.40;99.90
20803;DHT22;10562;-33.856;151.182;2024-02-23T02:04:48;36.40;99.90
20803;DHT22;10562;-33.856;151.182;2024-02-23T02:07:20;36.50;99.90
20803;DHT22;10562;-33.856;151.182;2024-02-23T02:09:52;36.60;99.90
20803;DHT22;10562;-33.856;151.182;2024-02-23T02:12:29;36.60;99.90
20803;DHT22;10562;-33.856;151.182;2024-02-23T02:15:00;36.50;99.90
20803;DHT22;10562;-33.856;151.182;2024-02-23T02:17:33;36.50;99.90
20803;DHT22;10562;-33.856;151.182;2024-02-23T02:20:04;36.70;99.90
20803;DHT22;10562;-33.856;151.182;2024-02-23T02:22:36;37.10;99.90
20803;DHT22;10562;-33.856;151.182;2024-02-23T02:25:08;37.30;99.90
20803;DHT22;10562;-33.856;151.182;2024-02-23T02:27:39;37.40;99.90
20803;DHT22;10562;-33.856;151.182;2024-02-23T02:30:10;37.60;99.90
20803;DHT22;10562;-33.856;151.182;2024-02-23T02:32:43;37.60;99.90
20803;DHT22;10562;-33.856;151.182;2024-02-23T02:35:14;37.50;99.90
20803;DHT22;10562;-33.856;151.182;2024-02-23T02:37:45;37.40;99.90
20803;DHT22;10562;-33.856;151.182;2024-02-23T02:40:15;37.30;99.90
20803;DHT22;10562;-33.856;151.182;2024-02-23T02:42:50;37.20;99.90
20803;DHT22;10562;-33.856;151.182;2024-02-23T02:45:21;37.10;99.90
20803;DHT22;10562;-33.856;151.182;2024-02-23T02:47:53;36.90;99.90
20803;DHT22;10562;-33.856;151.182;2024-02-23T02:50:24;36.90;99.90
20803;DHT22;10562;-33.856;151.182;2024-02-23T02:52:59;36.90;99.90
20803;DHT22;10562;-33.856;151.182;2024-02-23T02:55:30;36.80;99.90
20803;DHT22;10562;-33.856;151.182;2024-02-23T02:58:01;36.90;99.90
20803;DHT22;10562;-33.856;151.182;2024-02-23T03:00:32;36.80;99.90
20803;DHT22;10562;-33.856;151.182;2024-02-23T03:03:05;36.90;99.90
20803;DHT22;10562;-33.856;151.182;2024-02-23T03:05:37;37.00;99.90
20803;DHT22;10562;-33.856;151.182;2024-02-23T03:08:08;37.30;99.90
20803;DHT22;10562;-33.856;151.182;2024-02-23T03:10:42;38.00;99.90
20803;DHT22;10562;-33.856;151.182;2024-02-23T03:13:13;38.40;99.90
20803;DHT22;10562;-33.856;151.182;2024-02-23T03:15:44;38.50;99.90
20803;DHT22;10562;-33.856;151.182;2024-02-23T03:18:16;38.40;99.90
20803;DHT22;10562;-33.856;151.182;2024-02-23T03:20:47;38.10;99.90
20803;DHT22;10562;-33.856;151.182;2024-02-23T03:23:18;37.90;99.90
20803;DHT22;10562;-33.856;151.182;2024-02-23T03:25:48;37.70;99.90
20803;DHT22;10562;-33.856;151.182;2024-02-23T03:28:19;37.60;99.90
20803;DHT22;10562;-33.856;151.182;2024-02-23T03:30:50;37.70;99.90
20803;DHT22;10562;-33.856;151.182;2024-02-23T03:33:23;37.80;99.90
20803;DHT22;10562;-33.856;151.182;2024-02-23T03:35:54;38.00;99.90
20803;DHT22;10562;-33.856;151.182;2024-02-23T03:38:25;38.50;99.90
20803;DHT22;10562;-33.856;151.182;2024-02-23T03:40:56;38.60;99.90
20803;DHT22;10562;-33.856;151.182;2024-02-23T03:43:27;38.60;99.90
20803;DHT22;10562;-33.856;151.182;2024-02-23T03:45:58;38.50;99.90
20803;DHT22;10562;-33.856;151.182;2024-02-23T03:48:31;38.50;99.90
20803;DHT22;10562;-33.856;151.182;2024-02-23T03:51:10;38.60;99.90
20803;DHT22;10562;-33.856;151.182;2024-02-23T03:53:41;38.70;99.90
20803;DHT22;10562;-33.856;151.182;2024-02-23T03:56:12;38.80;99.90
20803;DHT22;10562;-33.856;151.182;2024-02-23T03:58:43;39.10;99.90
20803;DHT22;10562;-33.856;151.182;2024-02-23T04:01:14;39.20;99.90
20803;DHT22;10562;-33.856;151.182;2024-02-23T04:03:46;39.30;99.90
20803;DHT22;10562;-33.856;151.182;2024-02-23T04:06:17;39.20;99.90
20803;DHT22;10562;-33.856;151.182;2024-02-23T04:08:48;39.10;99.90
20803;DHT22;10562;-33.856;151.182;2024-02-23T04:11:18;38.80;99.90
20803;DHT22;10562;-33.856;151.182;2024-02-23T04:13:50;38.60;99.90
20803;DHT22;10562;-33.856;151.182;2024-02-23T04:16:24;38.20;99.90
20803;DHT22;10562;-33.856;151.182;2024-02-23T04:18:57;38.00;99.90
20803;DHT22;10562;-33.856;151.182;2024-02-23T04:21:27;37.80;99.90
20803;DHT22;10562;-33.856;151.182;2024-02-23T04:23:58;37.60;99.90
20803;DHT22;10562;-33.856;151.182;2024-02-23T04:26:29;37.40;99.90
20803;DHT22;10562;-33.856;151.182;2024-02-23T04:29:00;37.30;99.90
20803;DHT22;10562;-33.856;151.182;2024-02-23T04:31:30;37.20;99.90
20803;DHT22;10562;-33.856;151.182;2024-02-23T04:34:03;37.20;99.90
20803;DHT22;10562;-33.856;151.182;2024-02-23T04:36:34;37.30;99.90
20803;DHT22;10562;-33.856;151.182;2024-02-23T04:39:05;37.40;99.90
20803;DHT22;10562;-33.856;151.182;2024-02-23T04:41:36;37.50;99.90
20803;DHT22;10562;-33.856;151.182;2024-02-23T04:44:07;37.60;99.90
20803;DHT22;10562;-33.856;151.182;2024-02-23T04:46:38;37.70;99.90
20803;DHT22;10562;-33.856;151.182;2024-02-23T04:49:11;37.90;99.90
20803;DHT22;10562;-33.856;151.182;2024-02-23T04:51:42;38.20;99.90
20803;DHT22;10562;-33.856;151.182;2024-02-23T04:54:13;38.40;99.90
20803;DHT22;10562;-33.856;151.182;2024-02-23T04:56:44;38.60;99.90
20803;DHT22;10562;-33.856;151.182;2024-02-23T04:59:15;38.80;99.90
20803;DHT22;10562;-33.856;151.182;2024-02-23T05:01:46;38.90;99.90
20803;DHT22;10562;-33.856;151.182;2024-02-23T05:04:34;38.80;99.90
20803;DHT22;10562;-33.856;151.182;2024-02-23T05:07:04;38.80;99.90
20803;DHT22;10562;-33.856;151.182;2024-02-23T05:09:35;39.30;99.90
20803;DHT22;10562;-33.856;151.182;2024-02-23T05:12:09;39.80;99.90
20803;DHT22;10562;-33.856;151.182;2024-02-23T05:14:39;40.10;99.90
20803;DHT22;10562;-33.856;151.182;2024-02-23T05:17:10;40.20;99.90
20803;DHT22;10562;-33.856;151.182;2024-02-23T05:19:43;40.70;99.90
20803;DHT22;10562;-33.856;151.182;2024-02-23T05:22:14;41.10;99.90
20803;DHT22;10562;-33.856;151.182;2024-02-23T05:24:45;41.60;97.80
20803;DHT22;10562;-33.856;151.182;2024-02-23T05:27:15;41.30;96.40
20803;DHT22;10562;-33.856;151.182;2024-02-23T05:29:46;40.90;96.10
20803;DHT22;10562;-33.856;151.182;2024-02-23T05:32:17;40.10;95.30
20803;DHT22;10562;-33.856;151.182;2024-02-23T05:34:49;39.60;96.40
20803;DHT22;10562;-33.856;151.182;2024-02-23T05:37:22;39.30;98.70
20803;DHT22;10562;-33.856;151.182;2024-02-23T05:39:52;38.50;99.50
20803;DHT22;10562;-33.856;151.182;2024-02-23T05:42:23;37.30;99.90
20803;DHT22;10562;-33.856;151.182;2024-02-23T05:44:54;36.20;99.90
20803;DHT22;10562;-33.856;151.182;2024-02-23T05:47:25;34.80;99.90
20803;DHT22;10562;-33.856;151.182;2024-02-23T05:49:59;33.40;99.90
20803;DHT22;10562;-33.856;151.182;2024-02-23T05:52:31;32.70;99.90
20803;DHT22;10562;-33.856;151.182;2024-02-23T05:55:02;32.10;99.90
20803;DHT22;10562;-33.856;151.182;2024-02-23T05:57:33;31.60;99.90
20803;DHT22;10562;-33.856;151.182;2024-02-23T06:00:04;31.30;99.90
20803;DHT22;10562;-33.856;151.182;2024-02-23T06:02:35;31.00;99.90
20803;DHT22;10562;-33.856;151.182;2024-02-23T06:05:08;30.80;99.90
20803;DHT22;10562;-33.856;151.182;2024-02-23T06:07:39;30.60;99.90
20803;DHT22;10562;-33.856;151.182;2024-02-23T06:10:10;30.50;99.90
20803;DHT22;10562;-33.856;151.182;2024-02-23T06:12:41;30.50;99.90
20803;DHT22;10562;-33.856;151.182;2024-02-23T06:15:11;30.40;99.90
20803;DHT22;10562;-33.856;151.182;2024-02-23T06:17:42;30.40;99.90
20803;DHT22;10562;-33.856;151.182;2024-02-23T06:20:15;30.30;99.90
20803;DHT22;10562;-33.856;151.182;2024-02-23T06:22:47;30.20;99.90
20803;DHT22;10562;-33.856;151.182;2024-02-23T06:25:18;30.20;99.90
20803;DHT22;10562;-33.856;151.182;2024-02-23T06:27:49;30.10;99.90
20803;DHT22;10562;-33.856;151.182;2024-02-23T06:30:19;30.20;99.90
20803;DHT22;10562;-33.856;151.182;2024-02-23T06:32:50;30.10;99.90
20803;DHT22;10562;-33.856;151.182;2024-02-23T06:35:23;29.80;99.90
20803;DHT22;10562;-33.856;151.182;2024-02-23T06:37:54;29.60;99.90
20803;DHT22;10562;-33.856;151.182;2024-02-23T06:40:24;29.40;99.90
20803;DHT22;10562;-33.856;151.182;2024-02-23T06:42:55;29.20;99.90
20803;DHT22;10562;-33.856;151.182;2024-02-23T06:45:26;29.00;99.90
20803;DHT22;10562;-33.856;151.182;2024-02-23T06:47:57;28.80;99.90
20803;DHT22;10562;-33.856;151.182;2024-02-23T06:50:30;28.80;99.90
20803;DHT22;10562;-33.856;151.182;2024-02-23T06:53:01;28.70;99.90
20803;DHT22;10562;-33.856;151.182;2024-02-23T06:55:33;28.20;99.90
20803;DHT22;10562;-33.856;151.182;2024-02-23T06:58:04;27.50;99.90
20803;DHT22;10562;-33.856;151.182;2024-02-23T07:00:35;27.10;99.90
20803;DHT22;10562;-33.856;151.182;2024-02-23T07:03:06;26.70;99.90
20803;DHT22;10562;-33.856;151.182;2024-02-23T07:05:39;26.60;99.90
20803;DHT22;10562;-33.856;151.182;2024-02-23T07:08:09;26.60;99.90
20803;DHT22;10562;-33.856;151.182;2024-02-23T07:10:41;26.40;99.90
20803;DHT22;10562;-33.856;151.182;2024-02-23T07:13:13;26.40;99.90
20803;DHT22;10562;-33.856;151.182;2024-02-23T07:15:45;26.30;99.90
20803;DHT22;10562;-33.856;151.182;2024-02-23T07:18:16;26.40;99.90
20803;DHT22;10562;-33.856;151.182;2024-02-23T07:20:49;26.30;99.90
20803;DHT22;10562;-33.856;151.182;2024-02-23T07:23:19;26.10;99.90
20803;DHT22;10562;-33.856;151.182;2024-02-23T07:25:50;25.70;99.90
20803;DHT22;10562;-33.856;151.182;2024-02-23T07:28:23;25.40;99.90
20803;DHT22;10562;-33.856;151.182;2024-02-23T07:30:53;25.30;99.90
20803;DHT22;10562;-33.856;151.182;2024-02-23T07:33:28;25.40;99.90
20803;DHT22;10562;-33.856;151.182;2024-02-23T07:36:03;25.50;99.90
20803;DHT22;10562;-33.856;151.182;2024-02-23T07:38:34;25.70;99.90
20803;DHT22;10562;-33.856;151.182;2024-02-23T07:41:05;25.90;99.90
20803;DHT22;10562;-33.856;151.182;2024-02-23T07:43:36;26.00;99.90
20803;DHT22;10562;-33.856;151.182;2024-02-23T07:46:08;26.00;99.90
20803;DHT22;10562;-33.856;151.182;2024-02-23T07:48:38;26.10;99.90
20803;DHT22;10562;-33.856;151.182;2024-02-23T07:51:16;26.00;99.90
20803;DHT22;10562;-33.856;151.182;2024-02-23T07:53:57;25.90;99.90
20803;DHT22;10562;-33.856;151.182;2024-02-23T07:56:30;25.90;99.90
20803;DHT22;10562;-33.856;151.182;2024-02-23T07:59:03;26.00;99.90
20803;DHT22;10562;-33.856;151.182;2024-02-23T08:01:34;26.10;99.90
20803;DHT22;10562;-33.856;151.182;2024-02-23T08:04:05;26.20;99.90
20803;DHT22;10562;-33.856;151.182;2024-02-23T08:06:38;26.20;99.90
20803;DHT22;10562;-33.856;151.182;2024-02-23T08:09:08;26.20;99.90
20803;DHT22;10562;-33.856;151.182;2024-02-23T08:11:40;26.30;99.90
20803;DHT22;10562;-33.856;151.182;2024-02-23T08:14:14;26.30;99.90
20803;DHT22;10562;-33.856;151.182;2024-02-23T08:16:45;26.20;99.90
20803;DHT22;10562;-33.856;151.182;2024-02-23T08:19:16;26.10;99.90
20803;DHT22;10562;-33.856;151.182;2024-02-23T08:21:48;25.90;99.90
20803;DHT22;10562;-33.856;151.182;2024-02-23T08:24:19;25.80;99.90
20803;DHT22;10562;-33.856;151.182;2024-02-23T08:26:50;25.70;99.90
20803;DHT22;10562;-33.856;151.182;2024-02-23T08:29:21;25.70;99.90
20803;DHT22;10562;-33.856;151.182;2024-02-23T08:31:52;25.70;99.90
20803;DHT22;10562;-33.856;151.182;2024-02-23T08:34:22;25.60;99.90
20803;DHT22;10562;-33.856;151.182;2024-02-23T08:36:55;25.40;99.90
20803;DHT22;10562;-33.856;151.182;2024-02-23T08:39:26;25.20;99.90
20803;DHT22;10562;-33.856;151.182;2024-02-23T08:41:57;25.10;99.90
20803;DHT22;10562;-33.856;151.182;2024-02-23T08:44:28;25.10;99.90
20803;DHT22;10562;-33.856;151.182;2024-02-23T08:46:59;25.10;99.90
20803;DHT22;10562;-33.856;151.182;2024-02-23T08:49:29;25.10;99.90
20803;DHT22;10562;-33.856;151.182;2024-02-23T08:52:02;25.20;99.90
20803;DHT22;10562;-33.856;151.182;2024-02-23T08:54:33;25.30;99.90
20803;DHT22;10562;-33.856;151.182;2024-02-23T08:57:05;25.30;99.90
20803;DHT22;10562;-33.856;151.182;2024-02-23T08:59:36;25.30;99.90
20803;DHT22;10562;-33.856;151.182;2024-02-23T09:02:07;25.20;99.90
20803;DHT22;10562;-33.856;151.182;2024-02-23T09:04:38;25.20;99.90
20803;DHT22;10562;-33.856;151.182;2024-02-23T09:07:10;25.10;99.90
20803;DHT22;10562;-33.856;151.182;2024-02-23T09:09:41;25.10;99.90
20803;DHT22;10562;-33.856;151.182;2024-02-23T09:12:12;24.90;99.90
20803;DHT22;10562;-33.856;151.182;2024-02-23T09:14:44;24.80;99.90
20803;DHT22;10562;-33.856;151.182;2024-02-23T09:17:14;24.80;99.90
20803;DHT22;10562;-33.856;151.182;2024-02-23T09:19:46;24.70;99.90
20803;DHT22;10562;-33.856;151.182;2024-02-23T09:22:19;24.60;99.90
20803;DHT22;10562;-33.856;151.182;2024-02-23T09:24:50;24.50;99.90
20803;DHT22;10562;-33.856;151.182;2024-02-23T09:27:22;24.50;99.90
20803;DHT22;10562;-33.856;151.182;2024-02-23T09:29:53;24.40;99.90
20803;DHT22;10562;-33.856;151.182;2024-02-23T09:32:24;24.30;99.90
20803;DHT22;10562;-33.856;151.182;2024-02-23T09:34:54;24.30;99.90
20803;DHT22;10562;-33.856;151.182;2024-02-23T09:37:28;24.30;99.90
20803;DHT22;10562;-33.856;151.182;2024-02-23T09:39:59;24.30;99.90
20803;DHT22;10562;-33.856;151.182;2024-02-23T09:42:30;24.40;99.90
20803;DHT22;10562;-33.856;151.182;2024-02-23T09:45:02;24.40;99.90
20803;DHT22;10562;-33.856;151.182;2024-02-23T09:47:33;24.50;99.90
20803;DHT22;10562;-33.856;151.182;2024-02-23T09:50:05;24.50;99.90
20803;DHT22;10562;-33.856;151.182;2024-02-23T09:52:38;24.40;99.90
20803;DHT22;10562;-33.856;151.182;2024-02-23T09:55:09;24.40;99.90
20803;DHT22;10562;-33.856;151.182;2024-02-23T09:57:40;24.40;99.90
20803;DHT22;10562;-33.856;151.182;2024-02-23T10:00:13;24.40;99.90
20803;DHT22;10562;-33.856;151.182;2024-02-23T10:02:45;24.40;99.90
20803;DHT22;10562;-33.856;151.182;2024-02-23T10:05:17;24.50;99.90
20803;DHT22;10562;-33.856;151.182;2024-02-23T10:07:50;24.60;99.90
20803;DHT22;10562;-33.856;151.182;2024-02-23T10:10:29;24.60;99.90
20803;DHT22;10562;-33.856;151.182;2024-02-23T10:13:01;24.60;99.90
20803;DHT22;10562;-33.856;151.182;2024-02-23T10:15:33;24.70;99.90
20803;DHT22;10562;-33.856;151.182;2024-02-23T10:18:04;24.70;99.90
20803;DHT22;10562;-33.856;151.182;2024-02-23T10:20:35;24.70;99.90
20803;DHT22;10562;-33.856;151.182;2024-02-23T10:23:08;24.70;99.90
20803;DHT22;10562;-33.856;151.182;2024-02-23T10:25:40;24.70;99.90
20803;DHT22;10562;-33.856;151.182;2024-02-23T10:28:10;24.70;99.90
20803;DHT22;10562;-33.856;151.182;2024-02-23T10:30:41;24.70;99.90
20803;DHT22;10562;-33.856;151.182;2024-02-23T10:33:14;24.70;99.90
20803;DHT22;10562;-33.856;151.182;2024-02-23T10:35:46;24.60;99.90
20803;DHT22;10562;-33.856;151.182;2024-02-23T10:38:19;24.50;99.90
20803;DHT22;10562;-33.856;151.182;2024-02-23T10:40:51;24.40;99.90
20803;DHT22;10562;-33.856;151.182;2024-02-23T10:43:30;24.40;99.90
20803;DHT22;10562;-33.856;151.182;2024-02-23T10:46:04;24.40;99.90
20803;DHT22;10562;-33.856;151.182;2024-02-23T10:48:42;24.40;99.90
20803;DHT22;10562;-33.856;151.182;2024-02-23T10:51:15;24.30;99.90
20803;DHT22;10562;-33.856;151.182;2024-02-23T10:53:49;24.40;99.90
20803;DHT22;10562;-33.856;151.182;2024-02-23T10:56:21;24.40;99.90
20803;DHT22;10562;-33.856;151.182;2024-02-23T10:58:53;24.30;99.90
20803;DHT22;10562;-33.856;151.182;2024-02-23T11:01:25;24.30;99.90
20803;DHT22;10562;-33.856;151.182;2024-02-23T11:03:56;24.30;99.90
20803;DHT22;10562;-33.856;151.182;2024-02-23T11:06:29;24.20;99.90
20803;DHT22;10562;-33.856;151.182;2024-02-23T11:09:14;24.20;99.90
20803;DHT22;10562;-33.856;151.182;2024-02-23T11:11:53;24.10;99.90
20803;DHT22;10562;-33.856;151.182;2024-02-23T11:14:35;24.10;99.90
20803;DHT22;10562;-33.856;151.182;2024-02-23T11:17:07;24.00;99.90
20803;DHT22;10562;-33.856;151.182;2024-02-23T11:19:50;24.00;99.90
20803;DHT22;10562;-33.856;151.182;2024-02-23T11:22:25;24.00;99.90
20803;DHT22;10562;-33.856;151.182;2024-02-23T11:25:04;24.00;99.90
20803;DHT22;10562;-33.856;151.182;2024-02-23T11:27:36;24.10;99.90
20803;DHT22;10562;-33.856;151.182;2024-02-23T11:30:09;24.10;99.90
20803;DHT22;10562;-33.856;151.182;2024-02-23T11:32:44;24.10;99.90
20803;DHT22;10562;-33.856;151.182;2024-02-23T11:35:15;24.10;99.90
20803;DHT22;10562;-33.856;151.182;2024-02-23T11:37:51;24.10;99.90
20803;DHT22;10562;-33.856;151.182;2024-02-23T11:40:36;24.10;99.90
20803;DHT22;10562;-33.856;151.182;2024-02-23T11:43:07;24.10;99.90
20803;DHT22;10562;-33.856;151.182;2024-02-23T11:45:38;24.00;99.90
20803;DHT22;10562;-33.856;151.182;2024-02-23T11:48:11;24.00;99.90
20803;DHT22;10562;-33.856;151.182;2024-02-23T11:50:42;23.90;99.90
20803;DHT22;10562;-33.856;151.182;2024-02-23T11:53:13;23.90;99.90
20803;DHT22;10562;-33.856;151.182;2024-02-23T11:55:46;23.90;99.90
20803;DHT22;10562;-33.856;151.182;2024-02-23T11:58:17;23.90;99.90
20803;DHT22;10562;-33.856;151.182;2024-02-23T12:00:48;23.90;99.90
20803;DHT22;10562;-33.856;151.182;2024-02-23T12:03:21;23.80;99.90
20803;DHT22;10562;-33.856;151.182;2024-02-23T12:05:53;23.80;99.90
20803;DHT22;10562;-33.856;151.182;2024-02-23T12:08:24;23.80;99.90
20803;DHT22;10562;-33.856;151.182;2024-02-23T12:10:58;23.80;99.90
20803;DHT22;10562;-33.856;151.182;2024-02-23T12:13:29;23.80;99.90
20803;DHT22;10562;-33.856;151.182;2024-02-23T12:16:01;23.80;99.90
20803;DHT22;10562;-33.856;151.182;2024-02-23T12:18:34;23.80;99.90
20803;DHT22;10562;-33.856;151.182;2024-02-23T12:21:06;23.70;99.90
20803;DHT22;10562;-33.856;151.182;2024-02-23T12:23:44;23.60;99.90
20803;DHT22;10562;-33.856;151.182;2024-02-23T12:26:18;23.60;99.90
20803;DHT22;10562;-33.856;151.182;2024-02-23T12:28:48;23.50;99.90
20803;DHT22;10562;-33.856;151.182;2024-02-23T12:31:25;23.50;99.90
20803;DHT22;10562;-33.856;151.182;2024-02-23T12:33:58;23.30;99.90
20803;DHT22;10562;-33.856;151.182;2024-02-23T12:36:29;23.30;99.90
20803;DHT22;10562;-33.856;151.182;2024-02-23T12:39:02;23.30;99.90
20803;DHT22;10562;-33.856;151.182;2024-02-23T12:41:35;23.30;99.90
20803;DHT22;10562;-33.856;151.182;2024-02-23T12:44:06;23.30;99.90
20803;DHT22;10562;-33.856;151.182;2024-02-23T12:46:37;23.30;99.90
20803;DHT22;10562;-33.856;151.182;2024-02-23T12:49:08;23.20;99.90
20803;DHT22;10562;-33.856;151.182;2024-02-23T12:51:39;23.10;99.90
20803;DHT22;10562;-33.856;151.182;2024-02-23T12:54:10;23.10;99.90
20803;DHT22;10562;-33.856;151.182;2024-02-23T12:56:43;23.00;99.90
20803;DHT22;10562;-33.856;151.182;2024-02-23T12:59:13;23.00;99.90
20803;DHT22;10562;-33.856;151.182;2024-02-23T13:01:44;22.90;99.90
20803;DHT22;10562;-33.856;151.182;2024-02-23T13:04:15;22.90;99.90
20803;DHT22;10562;-33.856;151.182;2024-02-23T13:06:45;22.90;99.90
20803;DHT22;10562;-33.856;151.182;2024-02-23T13:09:17;22.80;99.90
20803;DHT22;10562;-33.856;151.182;2024-02-23T13:11:50;22.80;99.90
20803;DHT22;10562;-33.856;151.182;2024-02-23T13:14:21;22.80;99.90
20803;DHT22;10562;-33.856;151.182;2024-02-23T13:16:52;22.70;99.90
20803;DHT22;10562;-33.856;151.182;2024-02-23T13:19:22;22.70;99.90
20803;DHT22;10562;-33.856;151.182;2024-02-23T13:21:53;22.60;99.90
20803;DHT22;10562;-33.856;151.182;2024-02-23T13:24:24;22.60;99.90
20803;DHT22;10562;-33.856;151.182;2024-02-23T13:26:57;22.60;99.90
20803;DHT22;10562;-33.856;151.182;2024-02-23T13:29:27;22.50;99.90
20803;DHT22;10562;-33.856;151.182;2024-02-23T13:31:58;22.50;99.90
20803;DHT22;10562;-33.856;151.182;2024-02-23T13:34:29;22.40;99.90
20803;DHT22;10562;-33.856;151.182;2024-02-23T13:37:00;22.40;99.90
20803;DHT22;10562;-33.856;151.182;2024-02-23T13:39:30;22.40;99.90
20803;DHT22;10562;-33.856;151.182;2024-02-23T13:42:03;22.40;99.90
20803;DHT22;10562;-33.856;151.182;2024-02-23T13:44:36;22.30;99.90
20803;DHT22;10562;-33.856;151.182;2024-02-23T13:47:07;22.30;99.90
20803;DHT22;10562;-33.856;151.182;2024-02-23T13:49:37;22.30;99.90
20803;DHT22;10562;-33.856;151.182;2024-02-23T13:52:08;22.30;99.90
20803;DHT22;10562;-33.856;151.182;2024-02-23T13:54:39;22.30;99.90
20803;DHT22;10562;-33.856;151.182;2024-02-23T13:57:12;22.30;99.90
20803;DHT22;10562;-33.856;151.182;2024-02-23T13:59:43;22.30;99.90
20803;DHT22;10562;-33.856;151.182;2024-02-23T14:02:14;22.20;99.90
20803;DHT22;10562;-33.856;151.182;2024-02-23T14:04:46;22.30;99.90
20803;DHT22;10562;-33.856;151.182;2024-02-23T14:07:17;22.20;99.90
20803;DHT22;10562;-33.856;151.182;2024-02-23T14:09:48;22.20;99.90
20803;DHT22;10562;-33.856;151.182;2024-02-23T14:12:20;22.30;99.90
20803;DHT22;10562;-33.856;151.182;2024-02-23T14:14:51;22.30;99.90
20803;DHT22;10562;-33.856;151.182;2024-02-23T14:17:22;22.30;99.90
20803;DHT22;10562;-33.856;151.182;2024-02-23T14:19:56;22.30;99.90
20803;DHT22;10562;-33.856;151.182;2024-02-23T14:22:26;22.20;99.90
20803;DHT22;10562;-33.856;151.182;2024-02-23T14:24:57;22.20;99.90
20803;DHT22;10562;-33.856;151.182;2024-02-23T14:27:30;22.10;99.90
20803;DHT22;10562;-33.856;151.182;2024-02-23T14:30:01;22.10;99.90
20803;DHT22;10562;-33.856;151.182;2024-02-23T14:32:31;22.00;99.90
20803;DHT22;10562;-33.856;151.182;2024-02-23T14:35:03;22.00;99.90
20803;DHT22;10562;-33.856;151.182;2024-02-23T14:37:34;21.90;99.90
20803;DHT22;10562;-33.856;151.182;2024-02-23T14:40:06;21.80;99.90
20803;DHT22;10562;-33.856;151.182;2024-02-23T14:42:38;21.80;99.90
20803;DHT22;10562;-33.856;151.182;2024-02-23T14:45:10;21.70;99.90
20803;DHT22;10562;-33.856;151.182;2024-02-23T14:47:41;21.60;99.90
20803;DHT22;10562;-33.856;151.182;2024-02-23T14:50:12;21.60;99.90
20803;DHT22;10562;-33.856;151.182;2024-02-23T14:52:43;21.60;99.90
20803;DHT22;10562;-33.856;151.182;2024-02-23T14:55:14;21.60;99.90
20803;DHT22;10562;-33.856;151.182;2024-02-23T14:57:48;21.50;99.90
20803;DHT22;10562;-33.856;151.182;2024-02-23T15:00:19;21.50;99.90
20803;DHT22;10562;-33.856;151.182;2024-02-23T15:02:50;21.50;99.90
20803;DHT22;10562;-33.856;151.182;2024-02-23T15:05:21;21.40;99.90
20803;DHT22;10562;-33.856;151.182;2024-02-23T15:07:51;21.30;99.90
20803;DHT22;10562;-33.856;151.182;2024-02-23T15:10:22;21.30;99.90
20803;DHT22;10562;-33.856;151.182;2024-02-23T15:12:55;21.30;99.90
20803;DHT22;10562;-33.856;151.182;2024-02-23T15:15:26;21.30;99.90